Time;durP1;ratioP1;P1;durP2;ratioP2;P2;SDS_P1;SDS_P2;PMS_P1;PMS_P2;Temp;Humidity;BMP_temperature;BMP_pressure;BME280_temperature;BME280_humidity;BME280_pressure;Samples;Min_cycle;Max_cycle;Signal;HPM_P1;HPM_P2
2022/07/21 00:01:15;;;;;;;1.00;0.85;;;;;;;;;;5026315;28;20038;-89
2022/07/21 00:03:41;;;;;;;0.10;0.10;;;;;;;;;;5025531;28;20040;-92
2022/07/21 00:06:07;;;;;;;0.08;0.08;;;;;;;;;;5025319;28;20557;-91
2022/07/21 00:08:33;;;;;;;0.10;0.10;;;;;;;;;;5025000;28;20048;-91
2022/07/21 00:11:00;;;;;;;0.10;0.10;;;;;;;;;;5025105;28;20045;-90
2022/07/21 00:13:26;;;;;;;0.10;0.10;;;;;;;;;;5009548;28;20056;-92
2022/07/21 00:15:52;;;;;;;0.05;0.05;;;;;;;;;;5026982;28;20046;-93
2022/07/21 00:18:19;;;;;;;0.00;0.00;;;;;;;;;;5026847;28;20064;-95
2022/07/21 00:20:46;;;;;;;0.00;0.00;;;;;;;;;;5028666;28;20041;-93
2022/07/21 00:23:12;;;;;;;0.00;0.00;;;;;;;;;;5027802;28;20041;-93
2022/07/21 00:25:40;;;;;;;0.08;0.08;;;;;;;;;;5027213;28;20052;-92
2022/07/21 00:28:06;;;;;;;0.00;0.00;;;;;;;;;;5043929;28;20092;-93
2022/07/21 00:30:34;;;;;;;0.45;0.45;;;;;;;;;;5043904;28;20060;-90
2022/07/21 00:33:00;;;;;;;0.15;0.15;;;;;;;;;;5026558;28;20545;-91
2022/07/21 00:35:26;;;;;;;0.05;0.05;;;;;;;;;;5026189;28;20052;-92
2022/07/21 00:37:52;;;;;;;0.10;0.10;;;;;;;;;;5025872;28;20052;-92
2022/07/21 00:40:18;;;;;;;0.10;0.10;;;;;;;;;;5025783;28;20033;-92
2022/07/21 00:42:44;;;;;;;0.00;0.00;;;;;;;;;;5027090;28;20042;-92
2022/07/21 00:45:11;;;;;;;0.00;0.00;;;;;;;;;;5026608;28;20037;-92
2022/07/21 00:47:37;;;;;;;0.10;0.10;;;;;;;;;;5027200;28;20057;-94
2022/07/21 00:50:06;;;;;;;0.10;0.10;;;;;;;;;;5027860;28;20041;-93
2022/07/21 00:52:32;;;;;;;0.00;0.00;;;;;;;;;;5027980;28;20045;-92
2022/07/21 00:54:58;;;;;;;0.00;0.00;;;;;;;;;;5028603;28;20131;-93
2022/07/21 00:57:24;;;;;;;0.00;0.00;;;;;;;;;;5028156;28;20061;-93
2022/07/21 00:59:50;;;;;;;0.10;0.10;;;;;;;;;;5028089;28;20048;-93
2022/07/21 01:02:16;;;;;;;0.00;0.00;;;;;;;;;;5028477;28;20038;-93
2022/07/21 01:04:42;;;;;;;0.08;0.08;;;;;;;;;;5044063;28;20439;-93
2022/07/21 01:07:08;;;;;;;0.10;0.10;;;;;;;;;;5028858;28;20048;-92
2022/07/21 01:09:35;;;;;;;0.10;0.10;;;;;;;;;;5027841;28;20041;-92
2022/07/21 01:12:02;;;;;;;0.03;0.03;;;;;;;;;;5046825;28;20100;-93
2022/07/21 01:14:28;;;;;;;0.10;0.10;;;;;;;;;;5030147;28;20091;-94
2022/07/21 01:16:54;;;;;;;0.00;0.00;;;;;;;;;;5028218;28;20041;-93
2022/07/21 01:19:20;;;;;;;0.00;0.00;;;;;;;;;;5027328;28;20047;-93
2022/07/21 01:21:49;;;;;;;0.00;0.00;;;;;;;;;;5043637;28;20491;-94
2022/07/21 01:24:15;;;;;;;0.10;0.10;;;;;;;;;;5043384;28;20056;-91
2022/07/21 01:26:42;;;;;;;0.10;0.10;;;;;;;;;;5026945;28;20045;-92
2022/07/21 01:29:10;;;;;;;0.00;0.00;;;;;;;;;;5028731;28;20048;-92
2022/07/21 01:31:36;;;;;;;0.00;0.00;;;;;;;;;;5044779;28;20049;-92
2022/07/21 01:34:03;;;;;;;0.43;0.43;;;;;;;;;;5026624;28;20037;-92
2022/07/21 01:36:29;;;;;;;0.00;0.00;;;;;;;;;;5027346;28;20064;-91
2022/07/21 01:41:40;;;;;;;0.00;0.00;;;;;;;;;;5042328;28;20044;-92
2022/07/21 01:44:07;;;;;;;0.05;0.05;;;;;;;;;;5027104;28;20041;-92
2022/07/21 01:46:35;;;;;;;0.10;0.10;;;;;;;;;;5025894;28;20045;-91
2022/07/21 01:49:01;;;;;;;0.00;0.00;;;;;;;;;;5026453;28;20144;-92
2022/07/21 01:51:27;;;;;;;0.10;0.10;;;;;;;;;;5026533;28;20049;-92
2022/07/21 01:53:53;;;;;;;0.00;0.00;;;;;;;;;;5026047;28;20597;-92
2022/07/21 01:56:21;;;;;;;0.45;0.45;;;;;;;;;;5025541;28;20373;-91
2022/07/21 01:58:47;;;;;;;0.00;0.00;;;;;;;;;;5025368;28;20038;-91
2022/07/21 02:01:14;;;;;;;0.00;0.00;;;;;;;;;;5025993;28;20038;-90
2022/07/21 02:03:40;;;;;;;0.10;0.10;;;;;;;;;;5023571;28;20033;-90
2022/07/21 02:06:07;;;;;;;0.08;0.08;;;;;;;;;;5024146;28;20045;-91
2022/07/21 02:08:36;;;;;;;0.00;0.00;;;;;;;;;;5041296;28;20047;-91
2022/07/21 02:11:02;;;;;;;0.00;0.00;;;;;;;;;;5025659;28;20068;-90
2022/07/21 02:13:29;;;;;;;0.00;0.00;;;;;;;;;;5008855;28;20076;-90
2022/07/21 02:15:55;;;;;;;0.00;0.00;;;;;;;;;;5024544;28;20041;-89
2022/07/21 02:18:21;;;;;;;0.10;0.10;;;;;;;;;;5024532;28;20037;-91
2022/07/21 02:20:47;;;;;;;0.00;0.00;;;;;;;;;;5024838;28;20025;-91
2022/07/21 02:23:14;;;;;;;0.10;0.10;;;;;;;;;;5025094;28;20042;-91
2022/07/21 02:25:40;;;;;;;0.00;0.00;;;;;;;;;;5023653;28;20037;-90
2022/07/21 02:28:06;;;;;;;0.00;0.00;;;;;;;;;;5039552;28;20056;-89
2022/07/21 02:30:32;;;;;;;0.00;0.00;;;;;;;;;;5023911;28;20073;-90
2022/07/21 02:32:59;;;;;;;0.05;0.05;;;;;;;;;;5023568;28;20041;-90
2022/07/21 02:35:25;;;;;;;0.00;0.00;;;;;;;;;;5039551;28;20052;-89
2022/07/21 02:37:51;;;;;;;0.10;0.10;;;;;;;;;;5023234;28;20096;-89
2022/07/21 02:40:17;;;;;;;0.10;0.10;;;;;;;;;;5022169;28;20037;-90
2022/07/21 02:42:43;;;;;;;0.08;0.08;;;;;;;;;;5023329;28;20080;-90
2022/07/21 02:45:09;;;;;;;0.75;0.75;;;;;;;;;;5023823;28;20076;-90
2022/07/21 02:47:48;;;;;;;0.25;0.25;;;;;;;;;;5024337;28;20045;-90
2022/07/21 02:50:15;;;;;;;0.00;0.00;;;;;;;;;;5023923;28;20038;-90
2022/07/21 02:52:41;;;;;;;0.10;0.10;;;;;;;;;;5041383;28;20041;-90
2022/07/21 02:55:08;;;;;;;0.00;0.00;;;;;;;;;;5024229;28;20048;-91
2022/07/21 02:57:34;;;;;;;0.00;0.00;;;;;;;;;;5024740;28;20045;-90
2022/07/21 03:00:00;;;;;;;0.03;0.03;;;;;;;;;;5024340;28;20064;-91
2022/07/21 03:02:26;;;;;;;0.03;0.03;;;;;;;;;;5024673;28;20037;-91
2022/07/21 03:04:52;;;;;;;0.10;0.10;;;;;;;;;;5023264;28;20045;-90
2022/07/21 03:07:18;;;;;;;0.00;0.00;;;;;;;;;;5023461;28;20130;-91
2022/07/21 03:09:45;;;;;;;0.00;0.00;;;;;;;;;;5025043;28;20146;-91
2022/07/21 03:12:12;;;;;;;0.00;0.00;;;;;;;;;;5027563;28;20084;-91
2022/07/21 03:14:38;;;;;;;0.10;0.10;;;;;;;;;;5027812;28;20045;-91
2022/07/21 03:17:04;;;;;;;0.00;0.00;;;;;;;;;;5028628;28;20111;-91
2022/07/21 03:19:30;;;;;;;0.20;0.20;;;;;;;;;;5028372;28;20080;-91
2022/07/21 03:21:56;;;;;;;0.00;0.00;;;;;;;;;;5027616;28;20063;-91
2022/07/21 03:24:22;;;;;;;0.00;0.00;;;;;;;;;;5029100;28;20128;-91
2022/07/21 03:26:48;;;;;;;0.10;0.10;;;;;;;;;;5028143;28;20061;-92
2022/07/21 03:29:14;;;;;;;0.20;0.20;;;;;;;;;;5030088;28;20136;-92
2022/07/21 03:31:40;;;;;;;0.00;0.00;;;;;;;;;;5033164;28;20106;-92
2022/07/21 03:34:07;;;;;;;0.00;0.00;;;;;;;;;;5031332;28;20064;-91
2022/07/21 03:36:33;;;;;;;0.00;0.00;;;;;;;;;;5046788;28;20042;-92
2022/07/21 03:38:59;;;;;;;0.10;0.10;;;;;;;;;;5030509;28;20048;-93
2022/07/21 03:41:25;;;;;;;0.00;0.00;;;;;;;;;;5029752;28;20041;-91
2022/07/21 03:43:51;;;;;;;0.10;0.10;;;;;;;;;;5030375;28;20055;-91
2022/07/21 03:46:17;;;;;;;0.00;0.00;;;;;;;;;;5044885;28;20049;-92
2022/07/21 03:48:43;;;;;;;0.20;0.20;;;;;;;;;;5029254;28;20104;-90
2022/07/21 03:51:09;;;;;;;0.13;0.13;;;;;;;;;;5029179;28;20044;-92
2022/07/21 03:53:35;;;;;;;0.00;0.00;;;;;;;;;;5028395;28;20037;-90
2022/07/21 03:56:01;;;;;;;1.45;1.35;;;;;;;;;;5027367;28;20055;-90
2022/07/21 03:58:27;;;;;;;0.10;0.10;;;;;;;;;;5027538;28;20037;-91
2022/07/21 04:00:53;;;;;;;0.10;0.10;;;;;;;;;;5027742;28;20041;-90
2022/07/21 04:03:19;;;;;;;0.00;0.00;;;;;;;;;;5018430;28;20044;-90
2022/07/21 04:05:47;;;;;;;0.10;0.10;;;;;;;;;;5024165;28;20045;-90
2022/07/21 04:08:13;;;;;;;0.00;0.00;;;;;;;;;;5042945;28;20046;-90
2022/07/21 04:10:40;;;;;;;0.10;0.10;;;;;;;;;;5027156;28;20045;-90
2022/07/21 04:13:07;;;;;;;0.10;0.10;;;;;;;;;;5043711;28;20409;-89
2022/07/21 04:15:34;;;;;;;0.05;0.05;;;;;;;;;;5043701;28;20065;-90
2022/07/21 04:18:00;;;;;;;0.10;0.10;;;;;;;;;;5045059;28;20072;-90
2022/07/21 04:20:26;;;;;;;0.52;0.52;;;;;;;;;;5044354;28;20069;-90
2022/07/21 04:22:53;;;;;;;0.40;0.40;;;;;;;;;;5044749;28;20100;-92
2022/07/21 04:25:20;;;;;;;0.10;0.10;;;;;;;;;;5025214;28;20044;-90
2022/07/21 04:27:46;;;;;;;0.68;0.68;;;;;;;;;;5036355;28;20096;-90
2022/07/21 04:30:17;;;;;;;0.00;0.00;;;;;;;;;;5042146;28;20033;-90
2022/07/21 04:32:44;;;;;;;0.10;0.10;;;;;;;;;;5042049;28;20045;-91
2022/07/21 04:35:10;;;;;;;1.88;1.77;;;;;;;;;;5022136;28;20069;-90
2022/07/21 04:37:36;;;;;;;0.00;0.00;;;;;;;;;;5021025;28;20060;-89
2022/07/21 04:40:04;;;;;;;0.10;0.10;;;;;;;;;;5025702;28;20072;-90
2022/07/21 04:42:30;;;;;;;1.45;0.90;;;;;;;;;;5042982;28;20033;-89
2022/07/21 04:44:56;;;;;;;0.32;0.32;;;;;;;;;;5042155;28;20105;-89
2022/07/21 04:47:22;;;;;;;0.10;0.10;;;;;;;;;;5025816;28;20507;-90
2022/07/21 04:49:48;;;;;;;0.00;0.00;;;;;;;;;;5041109;28;20076;-89
2022/07/21 04:52:14;;;;;;;0.08;0.08;;;;;;;;;;5040972;28;20051;-90
2022/07/21 04:54:40;;;;;;;0.10;0.10;;;;;;;;;;5041509;28;20140;-90
2022/07/21 04:57:07;;;;;;;0.00;0.00;;;;;;;;;;5042369;28;20033;-87
2022/07/21 04:59:33;;;;;;;0.00;0.00;;;;;;;;;;5042929;28;20075;-90
2022/07/21 05:01:59;;;;;;;0.20;0.20;;;;;;;;;;5042662;28;20045;-90
2022/07/21 05:04:25;;;;;;;0.03;0.03;;;;;;;;;;5041344;28;20037;-91
2022/07/21 05:06:51;;;;;;;0.00;0.00;;;;;;;;;;5025929;28;20443;-90
2022/07/21 05:09:18;;;;;;;0.08;0.08;;;;;;;;;;5041295;28;20047;-89
2022/07/21 05:11:44;;;;;;;0.10;0.10;;;;;;;;;;5025415;28;20122;-90
2022/07/21 05:14:10;;;;;;;0.10;0.10;;;;;;;;;;5025291;28;20033;-89
2022/07/21 05:16:36;;;;;;;0.00;0.00;;;;;;;;;;5021517;28;20041;-89
2022/07/21 05:19:02;;;;;;;0.00;0.00;;;;;;;;;;5025478;28;20044;-89
2022/07/21 05:21:28;;;;;;;0.00;0.00;;;;;;;;;;5025052;28;20044;-90
2022/07/21 05:23:54;;;;;;;0.10;0.10;;;;;;;;;;5025716;28;20072;-90
2022/07/21 05:26:21;;;;;;;0.13;0.13;;;;;;;;;;5023193;28;20492;-90
2022/07/21 05:28:47;;;;;;;0.10;0.10;;;;;;;;;;5041490;28;20061;-90
2022/07/21 05:31:13;;;;;;;0.03;0.03;;;;;;;;;;5024935;28;20108;-91
2022/07/21 05:33:39;;;;;;;0.10;0.10;;;;;;;;;;5025203;28;20057;-91
2022/07/21 05:36:05;;;;;;;0.10;0.10;;;;;;;;;;5042307;28;20049;-89
2022/07/21 05:38:31;;;;;;;0.10;0.10;;;;;;;;;;5046669;28;20073;-89
2022/07/21 05:41:02;;;;;;;0.00;0.00;;;;;;;;;;5025363;28;20042;-89
2022/07/21 05:43:29;;;;;;;0.57;0.57;;;;;;;;;;5042538;28;20041;-90
2022/07/21 05:45:55;;;;;;;0.08;0.08;;;;;;;;;;5043368;28;20081;-90
2022/07/21 05:48:21;;;;;;;0.10;0.10;;;;;;;;;;5024262;28;20090;-90
2022/07/21 05:50:47;;;;;;;0.08;0.08;;;;;;;;;;5020217;28;20037;-90
2022/07/21 05:53:13;;;;;;;0.10;0.10;;;;;;;;;;5040833;28;20049;-89
2022/07/21 05:55:39;;;;;;;0.10;0.10;;;;;;;;;;5019398;28;20050;-89
2022/07/21 05:58:06;;;;;;;0.00;0.00;;;;;;;;;;5040712;28;20059;-91
2022/07/21 06:00:32;;;;;;;0.00;0.00;;;;;;;;;;5021117;28;20044;-89
2022/07/21 06:02:58;;;;;;;0.08;0.08;;;;;;;;;;5011628;28;20052;-89
2022/07/21 06:05:24;;;;;;;0.10;0.10;;;;;;;;;;5040857;28;20637;-91
2022/07/21 06:07:50;;;;;;;0.10;0.10;;;;;;;;;;5022474;28;20081;-90
2022/07/21 06:10:16;;;;;;;0.10;0.10;;;;;;;;;;5039151;28;20037;-90
2022/07/21 06:12:42;;;;;;;0.00;0.00;;;;;;;;;;5036882;28;20045;-90
2022/07/21 06:15:09;;;;;;;0.10;0.10;;;;;;;;;;5036317;28;20033;-90
2022/07/21 06:17:39;;;;;;;0.10;0.10;;;;;;;;;;5036063;28;20041;-89
2022/07/21 06:20:06;;;;;;;0.03;0.03;;;;;;;;;;5021569;28;20077;-88
2022/07/21 06:22:32;;;;;;;0.10;0.10;;;;;;;;;;5017754;28;20069;-89
2022/07/21 06:24:58;;;;;;;0.00;0.00;;;;;;;;;;5021809;28;20171;-89
2022/07/21 06:27:24;;;;;;;0.08;0.08;;;;;;;;;;5038811;28;20073;-90
2022/07/21 06:29:50;;;;;;;0.10;0.10;;;;;;;;;;5019079;28;20050;-89
2022/07/21 06:32:16;;;;;;;0.10;0.10;;;;;;;;;;5021484;28;20584;-90
2022/07/21 06:34:42;;;;;;;0.00;0.00;;;;;;;;;;5020604;28;20046;-89
2022/07/21 06:37:08;;;;;;;0.00;0.00;;;;;;;;;;5039399;28;20152;-87
2022/07/21 06:39:39;;;;;;;0.73;0.73;;;;;;;;;;5037543;28;20097;-89
2022/07/21 06:42:05;;;;;;;0.00;0.00;;;;;;;;;;5017314;28;20042;-87
2022/07/21 06:44:31;;;;;;;0.00;0.00;;;;;;;;;;5039315;28;20093;-88
2022/07/21 06:46:57;;;;;;;0.10;0.10;;;;;;;;;;5041364;28;20045;-88
2022/07/21 06:49:23;;;;;;;0.00;0.00;;;;;;;;;;5024845;28;20041;-88
2022/07/21 06:51:49;;;;;;;0.00;0.00;;;;;;;;;;5040729;28;20033;-89
2022/07/21 06:54:15;;;;;;;0.10;0.10;;;;;;;;;;5022802;28;20033;-90
2022/07/21 06:56:41;;;;;;;0.10;0.10;;;;;;;;;;5041172;28;20388;-88
2022/07/21 06:59:07;;;;;;;0.00;0.00;;;;;;;;;;5041252;28;20040;-88
2022/07/21 07:01:35;;;;;;;0.00;0.00;;;;;;;;;;5024119;28;20047;-89
2022/07/21 07:04:01;;;;;;;0.10;0.10;;;;;;;;;;5024530;28;20069;-89
2022/07/21 07:06:27;;;;;;;0.10;0.10;;;;;;;;;;5040941;28;20060;-89
2022/07/21 07:08:53;;;;;;;0.05;0.05;;;;;;;;;;5039924;28;20033;-88
2022/07/21 07:11:20;;;;;;;0.10;0.10;;;;;;;;;;5039798;28;20099;-88
2022/07/21 07:13:46;;;;;;;0.00;0.00;;;;;;;;;;5038466;28;20407;-87
2022/07/21 07:16:11;;;;;;;0.10;0.10;;;;;;;;;;5021209;28;20041;-87
2022/07/21 07:18:38;;;;;;;0.00;0.00;;;;;;;;;;5021931;28;20041;-88
2022/07/21 07:21:04;;;;;;;0.00;0.00;;;;;;;;;;5019786;28;20044;-90
2022/07/21 07:23:30;;;;;;;0.10;0.10;;;;;;;;;;5038998;28;20045;-88
2022/07/21 07:25:56;;;;;;;0.10;0.10;;;;;;;;;;5018628;28;20041;-89
2022/07/21 07:28:22;;;;;;;0.10;0.10;;;;;;;;;;5017898;28;20033;-87
2022/07/21 07:30:50;;;;;;;0.00;0.00;;;;;;;;;;5039226;28;20052;-89
2022/07/21 07:33:16;;;;;;;0.13;0.13;;;;;;;;;;5021080;28;20064;-87
2022/07/21 07:35:42;;;;;;;0.05;0.05;;;;;;;;;;5039318;28;20052;-88
2022/07/21 07:38:08;;;;;;;0.00;0.00;;;;;;;;;;5039097;28;20041;-88
2022/07/21 07:40:36;;;;;;;0.00;0.00;;;;;;;;;;5037744;28;20033;-87
2022/07/21 07:43:02;;;;;;;0.00;0.00;;;;;;;;;;5038823;28;20041;-87
2022/07/21 07:45:28;;;;;;;0.10;0.10;;;;;;;;;;5022792;28;20048;-89
2022/07/21 07:47:54;;;;;;;0.10;0.10;;;;;;;;;;5039136;28;20033;-88
2022/07/21 07:50:20;;;;;;;0.00;0.00;;;;;;;;;;5040842;28;20435;-89
2022/07/21 07:52:46;;;;;;;0.10;0.10;;;;;;;;;;5040818;28;20042;-88
2022/07/21 07:55:12;;;;;;;0.10;0.10;;;;;;;;;;5022782;28;20034;-88
2022/07/21 07:57:39;;;;;;;0.00;0.00;;;;;;;;;;5041287;28;20079;-89
2022/07/21 08:00:07;;;;;;;0.00;0.00;;;;;;;;;;5042674;28;20033;-90
2022/07/21 08:02:33;;;;;;;0.00;0.00;;;;;;;;;;5026560;28;20034;-93
2022/07/21 08:04:59;;;;;;;0.00;0.00;;;;;;;;;;5044290;28;20037;-92
2022/07/21 08:07:25;;;;;;;0.00;0.00;;;;;;;;;;5041374;28;20412;-90
2022/07/21 08:09:51;;;;;;;0.00;0.00;;;;;;;;;;5023117;28;20056;-90
2022/07/21 08:12:17;;;;;;;0.00;0.00;;;;;;;;;;5040169;28;20073;-89
2022/07/21 08:14:43;;;;;;;0.00;0.00;;;;;;;;;;5023349;28;20077;-90
2022/07/21 08:17:09;;;;;;;0.10;0.10;;;;;;;;;;5041477;28;20056;-90
2022/07/21 08:19:35;;;;;;;0.00;0.00;;;;;;;;;;5040709;28;20034;-89
2022/07/21 08:22:01;;;;;;;0.20;0.20;;;;;;;;;;5023570;28;20033;-90
2022/07/21 08:24:27;;;;;;;0.00;0.00;;;;;;;;;;5040990;28;20040;-90
2022/07/21 08:26:54;;;;;;;0.20;0.20;;;;;;;;;;5006846;28;20048;-89
2022/07/21 08:29:20;;;;;;;0.10;0.10;;;;;;;;;;5039891;28;20069;-89
2022/07/21 08:31:46;;;;;;;0.10;0.10;;;;;;;;;;5039966;28;20041;-89
2022/07/21 08:34:12;;;;;;;0.00;0.00;;;;;;;;;;5021174;28;20120;-90
2022/07/21 08:36:38;;;;;;;0.00;0.00;;;;;;;;;;5038709;28;20041;-90
2022/07/21 08:39:04;;;;;;;0.10;0.10;;;;;;;;;;5039631;28;20038;-88
2022/07/21 08:41:32;;;;;;;0.10;0.10;;;;;;;;;;5041096;28;20060;-88
2022/07/21 08:43:58;;;;;;;0.00;0.00;;;;;;;;;;5020667;28;20068;-86
2022/07/21 08:46:24;;;;;;;0.00;0.00;;;;;;;;;;5040343;28;20063;-89
2022/07/21 08:48:50;;;;;;;0.00;0.00;;;;;;;;;;5038981;28;20041;-89
2022/07/21 08:51:17;;;;;;;0.10;0.10;;;;;;;;;;5025023;28;20029;-89
2022/07/21 08:53:46;;;;;;;0.00;0.00;;;;;;;;;;5039309;28;20046;-88
2022/07/21 08:56:13;;;;;;;0.00;0.00;;;;;;;;;;5038405;28;20090;-91
2022/07/21 08:58:39;;;;;;;0.00;0.00;;;;;;;;;;5023165;28;20167;-89
2022/07/21 09:01:05;;;;;;;0.00;0.00;;;;;;;;;;5038926;28;20133;-88
2022/07/21 09:03:32;;;;;;;0.10;0.10;;;;;;;;;;5022179;28;20113;-90
2022/07/21 09:06:06;;;;;;;0.10;0.10;;;;;;;;;;5019816;28;20385;-89
2022/07/21 09:08:34;;;;;;;0.00;0.00;;;;;;;;;;5021373;28;20047;-89
2022/07/21 09:11:12;;;;;;;0.00;0.00;;;;;;;;;;5024376;28;20045;-90
2022/07/21 09:13:39;;;;;;;0.00;0.00;;;;;;;;;;5021494;28;20096;-89
2022/07/21 09:16:06;;;;;;;0.00;0.00;;;;;;;;;;5022454;28;20050;-90
2022/07/21 09:18:32;;;;;;;0.00;0.00;;;;;;;;;;5040732;28;20038;-91
2022/07/21 09:21:00;;;;;;;0.10;0.10;;;;;;;;;;5024564;28;20049;-90
2022/07/21 09:23:26;;;;;;;0.10;0.10;;;;;;;;;;5024363;28;20037;-89
2022/07/21 09:25:54;;;;;;;0.00;0.00;;;;;;;;;;5040379;28;20037;-90
2022/07/21 09:28:25;;;;;;;0.03;0.03;;;;;;;;;;5020646;28;20041;-89
2022/07/21 09:30:56;;;;;;;0.00;0.00;;;;;;;;;;5019929;28;20044;-91
2022/07/21 09:33:33;;;;;;;0.00;0.00;;;;;;;;;;5031296;28;20124;-88
2022/07/21 09:36:04;;;;;;;0.00;0.00;;;;;;;;;;5038849;28;20041;-89
2022/07/21 09:38:31;;;;;;;0.57;0.57;;;;;;;;;;5022870;28;20037;-89
2022/07/21 09:41:14;;;;;;;0.00;0.00;;;;;;;;;;5019223;28;20037;-88
2022/07/21 09:43:47;;;;;;;0.00;0.00;;;;;;;;;;5034234;28;20045;-89
2022/07/21 09:46:24;;;;;;;0.10;0.10;;;;;;;;;;5019040;28;20125;-91
2022/07/21 09:48:51;;;;;;;0.00;0.00;;;;;;;;;;5035057;28;20037;-89
2022/07/21 09:51:26;;;;;;;0.00;0.00;;;;;;;;;;5017967;28;20403;-88
2022/07/21 09:54:06;;;;;;;0.00;0.00;;;;;;;;;;5034961;28;20045;-88
2022/07/21 09:56:34;;;;;;;0.03;0.03;;;;;;;;;;5037739;28;20038;-89
2022/07/21 09:59:01;;;;;;;0.00;0.00;;;;;;;;;;5037499;28;20037;-89
2022/07/21 10:01:27;;;;;;;0.00;0.00;;;;;;;;;;5020815;28;20060;-89
2022/07/21 10:03:54;;;;;;;0.00;0.00;;;;;;;;;;5039738;28;20064;-92
2022/07/21 10:06:24;;;;;;;0.00;0.00;;;;;;;;;;5041581;28;20112;-90
2022/07/21 10:08:50;;;;;;;0.00;0.00;;;;;;;;;;5024254;28;20426;-91
2022/07/21 10:11:16;;;;;;;0.00;0.00;;;;;;;;;;5016761;28;20181;-91
2022/07/21 10:13:42;;;;;;;0.00;0.00;;;;;;;;;;5036497;28;20033;-90
2022/07/21 10:16:12;;;;;;;0.10;0.10;;;;;;;;;;5039948;28;20042;-90
2022/07/21 10:18:57;;;;;;;0.13;0.13;;;;;;;;;;5024586;28;20041;-89
2022/07/21 10:21:23;;;;;;;;;;;;;;;;;;5025777;28;20033;-90
2022/07/21 10:23:52;;;;;;;0.00;0.00;;;;;;;;;;5024541;28;20004;-89
2022/07/21 10:26:18;;;;;;;0.17;0.17;;;;;;;;;;5038879;28;20068;-89
2022/07/21 10:28:44;;;;;;;0.10;0.10;;;;;;;;;;5022482;28;20041;-90
2022/07/21 10:31:15;;;;;;;0.10;0.10;;;;;;;;;;5041991;28;20037;-89
2022/07/21 10:33:44;;;;;;;0.00;0.00;;;;;;;;;;5044208;28;20398;-90
2022/07/21 10:36:11;;;;;;;0.10;0.10;;;;;;;;;;5026936;28;20042;-91
2022/07/21 10:38:38;;;;;;;0.03;0.03;;;;;;;;;;5045478;28;20499;-90
2022/07/21 10:41:05;;;;;;;0.00;0.00;;;;;;;;;;5025423;28;20608;-89
2022/07/21 10:43:31;;;;;;;0.10;0.10;;;;;;;;;;5026100;28;20098;-90
2022/07/21 10:45:58;;;;;;;0.00;0.00;;;;;;;;;;5045731;28;20041;-91
2022/07/21 10:48:44;;;;;;;0.10;0.10;;;;;;;;;;5028435;28;20407;-91
2022/07/21 10:51:27;;;;;;;0.00;0.00;;;;;;;;;;5037051;28;20045;-89
2022/07/21 10:54:16;;;;;;;0.00;0.00;;;;;;;;;;5041439;28;20045;-90
2022/07/21 10:56:42;;;;;;;0.00;0.00;;;;;;;;;;5043825;28;20037;-92
2022/07/21 10:59:08;;;;;;;0.00;0.00;;;;;;;;;;5043056;28;21726;-90
2022/07/21 11:01:39;;;;;;;0.00;0.00;;;;;;;;;;5046104;28;20041;-90
2022/07/21 11:04:08;;;;;;;0.08;0.08;;;;;;;;;;5027644;28;20048;-88
2022/07/21 11:06:35;;;;;;;0.00;0.00;;;;;;;;;;5044025;28;20045;-89
2022/07/21 11:09:04;;;;;;;0.00;0.00;;;;;;;;;;5027082;28;20041;-91
2022/07/21 11:11:31;;;;;;;0.05;0.05;;;;;;;;;;5044195;28;20042;-90
2022/07/21 11:13:59;;;;;;;0.08;0.08;;;;;;;;;;5026192;28;20037;-90
2022/07/21 11:16:44;;;;;;;0.00;0.00;;;;;;;;;;5042471;28;20053;-90
2022/07/21 11:19:10;;;;;;;;;;;;;;;;;;5024509;28;20037;-90
2022/07/21 11:21:36;;;;;;;0.00;0.00;;;;;;;;;;5025816;28;20371;-90
2022/07/21 11:24:03;;;;;;;0.10;0.10;;;;;;;;;;5027265;28;20468;-90
2022/07/21 11:26:29;;;;;;;0.00;0.00;;;;;;;;;;5025219;28;20080;-90
2022/07/21 11:29:07;;;;;;;0.00;0.00;;;;;;;;;;5027452;28;20045;-92
2022/07/21 11:31:45;;;;;;;0.00;0.00;;;;;;;;;;5027435;28;20041;-89
2022/07/21 11:34:11;;;;;;;0.00;0.00;;;;;;;;;;5043862;28;20033;-91
2022/07/21 11:36:37;;;;;;;0.08;0.08;;;;;;;;;;5027243;28;20053;-91
2022/07/21 11:39:09;;;;;;;0.00;0.00;;;;;;;;;;5043109;28;20060;-90
2022/07/21 11:41:37;;;;;;;0.03;0.03;;;;;;;;;;5025411;28;20034;-91
2022/07/21 11:44:04;;;;;;;0.03;0.03;;;;;;;;;;5042274;28;20037;-89
2022/07/21 11:46:50;;;;;;;0.00;0.00;;;;;;;;;;5043439;28;20049;-90
2022/07/21 11:49:16;;;;;;;0.10;0.10;;;;;;;;;;5013051;28;20665;-89
2022/07/21 11:51:46;;;;;;;0.00;0.00;;;;;;;;;;5023367;28;20070;-91
2022/07/21 11:54:22;;;;;;;0.10;0.10;;;;;;;;;;5038802;28;20059;-90
2022/07/21 11:56:49;;;;;;;0.10;0.10;;;;;;;;;;5024016;28;20045;-90
2022/07/21 11:59:15;;;;;;;0.10;0.10;;;;;;;;;;5020672;28;20044;-93
2022/07/21 12:01:50;;;;;;;0.25;0.25;;;;;;;;;;5045561;28;20038;-93
2022/07/21 12:04:35;;;;;;;0.00;0.00;;;;;;;;;;5041296;28;20081;-89
2022/07/21 12:07:02;;;;;;;0.00;0.00;;;;;;;;;;5040697;28;20049;-90
2022/07/21 12:09:28;;;;;;;0.10;0.10;;;;;;;;;;5041254;28;20033;-88
2022/07/21 12:11:54;;;;;;;0.10;0.10;;;;;;;;;;5023539;28;20068;-88
2022/07/21 12:14:22;;;;;;;0.10;0.10;;;;;;;;;;5024358;28;20043;-88
2022/07/21 12:16:52;;;;;;;0.00;0.00;;;;;;;;;;5023250;28;20083;-88
2022/07/21 12:19:18;;;;;;;0.17;0.17;;;;;;;;;;5022183;28;20087;-89
2022/07/21 12:21:52;;;;;;;0.00;0.00;;;;;;;;;;5018473;28;20048;-89
2022/07/21 12:24:18;;;;;;;0.08;0.08;;;;;;;;;;5042388;28;20037;-90
2022/07/21 12:26:45;;;;;;;0.00;0.00;;;;;;;;;;5022414;28;20190;-90
2022/07/21 12:29:24;;;;;;;0.00;0.00;;;;;;;;;;5042679;28;20041;-90
2022/07/21 12:31:50;;;;;;;0.05;0.05;;;;;;;;;;5019706;28;20045;-90
2022/07/21 12:34:18;;;;;;;0.15;0.15;;;;;;;;;;5043419;28;20072;-89
2022/07/21 12:36:45;;;;;;;0.10;0.10;;;;;;;;;;5026848;28;20053;-89
2022/07/21 12:42:10;;;;;;;0.00;0.00;;;;;;;;;;5039480;28;20102;-93
2022/07/21 12:44:37;;;;;;;0.00;0.00;;;;;;;;;;5025231;28;20400;-92
2022/07/21 12:47:13;;;;;;;0.00;0.00;;;;;;;;;;5023722;28;20037;-90
2022/07/21 12:49:55;;;;;;;0.10;0.10;;;;;;;;;;5026884;28;20040;-93
2022/07/21 12:52:21;;;;;;;0.20;0.20;;;;;;;;;;5041298;28;20049;-90
2022/07/21 12:54:47;;;;;;;0.10;0.10;;;;;;;;;;5011244;28;20087;-92
2022/07/21 12:57:13;;;;;;;0.20;0.20;;;;;;;;;;5044131;28;20033;-92
2022/07/21 12:59:41;;;;;;;0.10;0.10;;;;;;;;;;5025119;28;20096;-95
2022/07/21 13:02:07;;;;;;;0.00;0.00;;;;;;;;;;5004152;28;20029;-93
2022/07/21 13:04:33;;;;;;;0.10;0.10;;;;;;;;;;5026379;28;20034;-89
2022/07/21 13:06:59;;;;;;;0.00;0.00;;;;;;;;;;5026753;28;20053;-91
2022/07/21 13:09:25;;;;;;;0.00;0.00;;;;;;;;;;5044637;28;20045;-91
2022/07/21 13:11:51;;;;;;;0.00;0.00;;;;;;;;;;5045218;28;20132;-92
2022/07/21 13:14:17;;;;;;;0.20;0.20;;;;;;;;;;5046307;28;20041;-92
2022/07/21 13:16:44;;;;;;;0.00;0.00;;;;;;;;;;5013429;28;20048;-92
2022/07/21 13:19:10;;;;;;;0.00;0.00;;;;;;;;;;5030097;28;20107;-91
2022/07/21 13:21:37;;;;;;;0.10;0.10;;;;;;;;;;5046313;28;20085;-92
2022/07/21 13:24:03;;;;;;;0.05;0.05;;;;;;;;;;5028899;28;20050;-92
2022/07/21 13:26:29;;;;;;;0.10;0.10;;;;;;;;;;5046423;28;20048;-92
2022/07/21 13:28:55;;;;;;;0.00;0.00;;;;;;;;;;5046261;28;20049;-93
2022/07/21 13:31:21;;;;;;;0.10;0.10;;;;;;;;;;5028725;28;20048;-93
2022/07/21 13:33:47;;;;;;;0.00;0.00;;;;;;;;;;5045237;28;20099;-90
2022/07/21 13:36:13;;;;;;;0.08;0.08;;;;;;;;;;5027999;28;20097;-94
2022/07/21 13:38:42;;;;;;;0.10;0.10;;;;;;;;;;5028236;28;20076;-92
2022/07/21 13:41:09;;;;;;;0.08;0.08;;;;;;;;;;5028066;28;20037;-91
2022/07/21 13:43:36;;;;;;;0.00;0.00;;;;;;;;;;5044449;28;20038;-92
2022/07/21 13:46:02;;;;;;;0.00;0.00;;;;;;;;;;5043618;28;20034;-95
2022/07/21 13:48:31;;;;;;;0.00;0.00;;;;;;;;;;5044052;28;20065;-92
2022/07/21 13:50:57;;;;;;;0.08;0.08;;;;;;;;;;5043169;28;20072;-91
2022/07/21 13:53:23;;;;;;;0.00;0.00;;;;;;;;;;5044683;28;20048;-92
2022/07/21 13:55:53;;;;;;;0.10;0.10;;;;;;;;;;5044696;28;20128;-90
2022/07/21 13:58:20;;;;;;;0.05;0.05;;;;;;;;;;5024252;28;20037;-91
2022/07/21 14:00:46;;;;;;;0.03;0.03;;;;;;;;;;5041576;28;20042;-92
2022/07/21 14:03:12;;;;;;;0.00;0.00;;;;;;;;;;5041895;28;20509;-91
2022/07/21 14:05:44;;;;;;;0.00;0.00;;;;;;;;;;5040846;28;20388;-92
2022/07/21 14:08:10;;;;;;;0.10;0.10;;;;;;;;;;5024398;28;20132;-93
2022/07/21 14:10:36;;;;;;;0.00;0.00;;;;;;;;;;5043546;28;20037;-90
2022/07/21 14:13:02;;;;;;;0.10;0.10;;;;;;;;;;5023048;28;20033;-91
2022/07/21 14:15:31;;;;;;;0.10;0.10;;;;;;;;;;5043579;28;20042;-91
2022/07/21 14:17:57;;;;;;;0.10;0.10;;;;;;;;;;5041638;28;20040;-90
2022/07/21 14:20:24;;;;;;;0.10;0.10;;;;;;;;;;5044249;28;20487;-89
2022/07/21 14:22:50;;;;;;;0.00;0.00;;;;;;;;;;5023521;28;20053;-91
2022/07/21 14:25:19;;;;;;;0.00;0.00;;;;;;;;;;5043765;28;20037;-94
2022/07/21 14:27:46;;;;;;;0.10;0.10;;;;;;;;;;5042575;28;20049;-93
2022/07/21 14:30:12;;;;;;;0.10;0.10;;;;;;;;;;5025051;28;20042;-92
2022/07/21 14:32:38;;;;;;;0.00;0.00;;;;;;;;;;5038424;28;20128;-90
2022/07/21 14:35:05;;;;;;;0.00;0.00;;;;;;;;;;5041385;28;20042;-91
2022/07/21 14:37:31;;;;;;;0.10;0.10;;;;;;;;;;5042680;28;20057;-91
2022/07/21 14:39:57;;;;;;;0.03;0.03;;;;;;;;;;5042462;28;20091;-91
2022/07/21 14:42:23;;;;;;;0.00;0.00;;;;;;;;;;5027740;28;20033;-93
2022/07/21 14:44:50;;;;;;;0.10;0.10;;;;;;;;;;5028149;28;20037;-92
2022/07/21 14:47:16;;;;;;;0.00;0.00;;;;;;;;;;5013019;28;20034;-90
2022/07/21 14:49:42;;;;;;;0.00;0.00;;;;;;;;;;5045331;28;20037;-91